Time;durP1;ratioP1;P1;durP2;ratioP2;P2;SDS_P1;SDS_P2;PMS_P1;PMS_P2;Temp;Humidity;BMP_temperature;BMP_pressure;BME280_temperature;BME280_humidity;BME280_pressure;Samples;Min_cycle;Max_cycle;Signal;HPM_P1;HPM_P2
2023/12/30 00:01:45;;;;;;;0.40;0.33;;;8.40;99.90;;;;;;5090692;28;20169;-77
2023/12/30 00:04:11;;;;;;;0.30;0.20;;;8.50;99.90;;;;;;5092146;28;20996;-77
2023/12/30 00:06:38;;;;;;;0.30;0.20;;;8.50;99.90;;;;;;5090435;28;20172;-77
2023/12/30 00:09:03;;;;;;;4.85;4.50;;;8.50;99.90;;;;;;5090643;28;20262;-78
2023/12/30 00:11:29;;;;;;;0.30;0.20;;;8.50;99.90;;;;;;5091702;28;20173;-77
2023/12/30 00:13:55;;;;;;;0.30;0.20;;;8.50;99.90;;;;;;5090517;28;20218;-77
2023/12/30 00:16:21;;;;;;;9.45;5.85;;;8.40;99.90;;;;;;5091527;28;20176;-77
2023/12/30 00:18:47;;;;;;;0.97;0.97;;;8.40;99.90;;;;;;5091063;28;20244;-78
2023/12/30 00:21:17;;;;;;;0.30;0.30;;;8.30;99.90;;;;;;5090979;28;20460;-77
2023/12/30 00:23:43;;;;;;;0.30;0.20;;;8.30;99.90;;;;;;5091919;28;20575;-77
2023/12/30 00:26:21;;;;;;;0.30;0.20;;;8.30;99.90;;;;;;5091030;28;20183;-78
2023/12/30 00:28:51;;;;;;;0.30;0.20;;;8.20;99.90;;;;;;5090308;28;20200;-78
2023/12/30 00:31:27;;;;;;;0.30;0.20;;;8.20;99.90;;;;;;5091122;28;20217;-77
2023/12/30 00:33:57;;;;;;;0.40;0.40;;;8.20;99.90;;;;;;5090023;28;20262;-77
2023/12/30 00:36:24;;;;;;;1.13;1.13;;;8.10;99.90;;;;;;5089697;28;20566;-77
2023/12/30 00:38:54;;;;;;;0.30;0.22;;;8.10;99.90;;;;;;5091610;28;20215;-77
2023/12/30 00:41:20;;;;;;;0.30;0.20;;;8.10;99.90;;;;;;5091353;28;20179;-77
2023/12/30 00:43:46;;;;;;;0.30;0.20;;;8.10;99.90;;;;;;5091241;28;20454;-78
2023/12/30 00:46:12;;;;;;;1.80;1.80;;;8.10;99.90;;;;;;5090879;28;20657;-77
2023/12/30 00:48:37;;;;;;;0.30;0.20;;;8.10;99.90;;;;;;5091222;28;20357;-78
2023/12/30 00:51:03;;;;;;;0.30;0.20;;;8.10;99.90;;;;;;5090992;28;20176;-77
2023/12/30 00:53:29;;;;;;;0.30;0.30;;;8.00;99.90;;;;;;5091175;28;20664;-77
2023/12/30 00:55:56;;;;;;;1.95;1.95;;;8.10;99.90;;;;;;5090696;28;20696;-77
2023/12/30 00:58:22;;;;;;;0.30;0.20;;;8.10;99.90;;;;;;5089794;28;20677;-77
2023/12/30 01:00:49;;;;;;;0.30;0.20;;;8.10;99.90;;;;;;5089210;28;20226;-77
2023/12/30 01:03:15;;;;;;;0.40;0.40;;;8.10;99.90;;;;;;5091065;28;20936;-77
2023/12/30 01:05:40;;;;;;;0.30;0.20;;;8.10;99.90;;;;;;5089648;28;20180;-77
2023/12/30 01:08:06;;;;;;;0.40;0.40;;;8.20;99.90;;;;;;5089524;28;20714;-77
2023/12/30 01:10:32;;;;;;;0.30;0.20;;;8.20;99.90;;;;;;5089756;28;20191;-77
2023/12/30 01:12:58;;;;;;;0.30;0.20;;;8.30;99.90;;;;;;5090467;28;20504;-77
2023/12/30 01:15:23;;;;;;;0.30;0.20;;;8.30;99.90;;;;;;5091109;28;20173;-77
2023/12/30 01:17:49;;;;;;;0.30;0.20;;;8.30;99.90;;;;;;5090350;28;20184;-78
2023/12/30 01:20:15;;;;;;;0.30;0.30;;;8.30;99.90;;;;;;5088585;28;20232;-78
2023/12/30 01:22:40;;;;;;;8.37;8.07;;;8.40;99.90;;;;;;5090464;28;20165;-77
2023/12/30 01:25:06;;;;;;;0.30;0.20;;;8.40;99.90;;;;;;5089009;28;20279;-77
2023/12/30 01:27:32;;;;;;;2.30;2.15;;;8.40;99.90;;;;;;5090591;28;20208;-78
2023/12/30 01:29:58;;;;;;;0.30;0.20;;;8.40;99.90;;;;;;5090676;28;20677;-78
2023/12/30 01:32:24;;;;;;;0.30;0.20;;;8.40;99.90;;;;;;5090014;28;20654;-77
2023/12/30 01:34:49;;;;;;;0.43;0.40;;;8.40;99.90;;;;;;5088517;28;20204;-78
2023/12/30 01:37:15;;;;;;;0.40;0.40;;;8.40;99.90;;;;;;5090179;28;20172;-78
2023/12/30 01:39:40;;;;;;;0.30;0.20;;;8.40;99.90;;;;;;5090494;28;20216;-77
2023/12/30 01:42:06;;;;;;;1.87;1.77;;;8.50;99.90;;;;;;5089902;28;20234;-78
2023/12/30 01:44:32;;;;;;;0.30;0.20;;;8.40;99.90;;;;;;5090416;28;20204;-77
2023/12/30 01:46:59;;;;;;;0.30;0.20;;;8.40;99.90;;;;;;5090089;28;20168;-78
2023/12/30 01:49:25;;;;;;;0.30;0.20;;;8.40;99.90;;;;;;5088339;28;20211;-77
2023/12/30 01:51:52;;;;;;;0.30;0.20;;;8.40;99.90;;;;;;5089853;28;20558;-77
2023/12/30 01:54:20;;;;;;;17.52;16.42;;;8.40;99.90;;;;;;5088688;28;20468;-77
2023/12/30 01:56:49;;;;;;;2.25;2.15;;;8.40;99.90;;;;;;5088193;28;20545;-78
2023/12/30 01:59:18;;;;;;;0.50;0.50;;;8.30;99.90;;;;;;5090043;28;20657;-78
2023/12/30 02:01:47;;;;;;;0.30;0.20;;;8.30;99.90;;;;;;5088500;28;20176;-77
2023/12/30 02:04:13;;;;;;;0.30;0.20;;;8.20;99.90;;;;;;5090055;28;20196;-78
2023/12/30 02:06:39;;;;;;;0.47;0.47;;;8.10;99.90;;;;;;5088457;28;20226;-78
2023/12/30 02:09:06;;;;;;;0.30;0.20;;;8.10;99.90;;;;;;5090027;28;20528;-78
2023/12/30 02:11:32;;;;;;;0.30;0.20;;;8.00;99.90;;;;;;5088197;28;20192;-77
2023/12/30 02:13:57;;;;;;;0.30;0.20;;;7.90;99.90;;;;;;5089714;28;20249;-77
2023/12/30 02:16:23;;;;;;;0.40;0.40;;;7.90;99.90;;;;;;5088258;28;20380;-77
2023/12/30 02:18:49;;;;;;;0.30;0.20;;;7.80;99.90;;;;;;5088135;28;20591;-77
2023/12/30 02:21:14;;;;;;;0.30;0.20;;;7.70;99.90;;;;;;5088930;28;20200;-78
2023/12/30 02:23:40;;;;;;;0.30;0.20;;;7.70;99.90;;;;;;5089431;28;20283;-77
2023/12/30 02:26:07;;;;;;;0.40;0.20;;;7.60;99.90;;;;;;5087939;28;20545;-76
2023/12/30 02:28:33;;;;;;;0.30;0.20;;;7.60;99.90;;;;;;5088416;28;20200;-77
2023/12/30 02:30:59;;;;;;;0.30;0.20;;;7.50;99.90;;;;;;5089120;28;20301;-78
2023/12/30 02:33:25;;;;;;;0.30;0.20;;;7.50;99.90;;;;;;5089512;28;20984;-77
2023/12/30 02:35:51;;;;;;;0.30;0.20;;;7.50;99.90;;;;;;5087644;28;20720;-78
2023/12/30 02:38:17;;;;;;;6.40;6.10;;;7.40;99.90;;;;;;5088177;28;20199;-77
2023/12/30 02:40:43;;;;;;;0.30;0.20;;;7.40;99.90;;;;;;5089618;28;20804;-78
2023/12/30 02:43:09;;;;;;;0.30;0.20;;;7.40;99.90;;;;;;5088183;28;20196;-77
2023/12/30 02:45:35;;;;;;;0.30;0.20;;;7.30;99.90;;;;;;5088534;28;20596;-78
2023/12/30 02:48:01;;;;;;;0.30;0.20;;;7.30;99.90;;;;;;5089215;28;20254;-77
2023/12/30 02:50:26;;;;;;;0.30;0.20;;;7.30;99.90;;;;;;5089830;28;20211;-77
2023/12/30 02:52:52;;;;;;;0.30;0.20;;;7.20;99.90;;;;;;5089055;28;20599;-77
2023/12/30 02:55:18;;;;;;;151.60;27.53;;;7.20;99.90;;;;;;5089754;28;20604;-77
2023/12/30 02:57:43;;;;;;;0.30;0.23;;;7.20;99.90;;;;;;5089167;28;20169;-77
2023/12/30 03:00:10;;;;;;;0.30;0.20;;;7.20;99.90;;;;;;5089465;28;20380;-77
2023/12/30 03:02:36;;;;;;;41.35;39.17;;;7.20;99.90;;;;;;5091216;28;20173;-77
2023/12/30 03:05:02;;;;;;;0.30;0.30;;;7.20;99.90;;;;;;5093168;28;20200;-78
2023/12/30 03:07:27;;;;;;;33.77;32.53;;;7.30;99.90;;;;;;5092904;28;20216;-77
2023/12/30 03:09:53;;;;;;;0.30;0.20;;;7.30;99.90;;;;;;5092894;28;20763;-76
2023/12/30 03:12:19;;;;;;;0.30;0.20;;;7.30;99.90;;;;;;5093108;28;20179;-77
2023/12/30 03:14:44;;;;;;;0.30;0.20;;;7.30;99.90;;;;;;5093198;28;20192;-77
2023/12/30 03:17:10;;;;;;;0.30;0.30;;;7.30;99.90;;;;;;5091610;28;20177;-77
2023/12/30 03:19:36;;;;;;;0.30;0.20;;;7.40;99.90;;;;;;5092831;28;20231;-77
2023/12/30 03:22:02;;;;;;;0.30;0.20;;;7.40;99.90;;;;;;5092267;28;20969;-77
2023/12/30 03:24:28;;;;;;;0.33;0.33;;;7.40;99.90;;;;;;5092295;28;20281;-78
2023/12/30 03:26:53;;;;;;;0.30;0.30;;;7.40;99.90;;;;;;5091132;28;21071;-77
2023/12/30 03:29:20;;;;;;;0.30;0.20;;;7.40;99.90;;;;;;5092967;28;20224;-77
2023/12/30 03:31:46;;;;;;;0.30;0.20;;;7.40;99.90;;;;;;5091111;28;20182;-77
2023/12/30 03:34:12;;;;;;;0.30;0.20;;;7.40;99.90;;;;;;5092640;28;20295;-77
2023/12/30 03:36:37;;;;;;;0.30;0.20;;;7.50;99.90;;;;;;5092080;28;20174;-77
2023/12/30 03:39:04;;;;;;;0.30;0.30;;;7.50;99.90;;;;;;5090935;28;20448;-78
2023/12/30 03:41:29;;;;;;;0.30;0.20;;;7.50;99.90;;;;;;5091173;28;20165;-77
2023/12/30 03:43:55;;;;;;;0.60;0.60;;;7.50;99.90;;;;;;5091069;28;20265;-77
2023/12/30 03:46:21;;;;;;;12.17;10.73;;;7.50;99.90;;;;;;5092014;28;20409;-76
2023/12/30 03:48:46;;;;;;;0.30;0.20;;;7.50;99.90;;;;;;5092495;28;20246;-77
2023/12/30 03:51:12;;;;;;;0.30;0.20;;;7.50;99.90;;;;;;5092021;28;20673;-77
2023/12/30 03:53:38;;;;;;;0.30;0.20;;;7.60;99.90;;;;;;5090982;28;20216;-76
2023/12/30 03:56:04;;;;;;;0.30;0.20;;;7.60;99.90;;;;;;5090618;28;20417;-77
2023/12/30 03:58:30;;;;;;;0.30;0.20;;;7.60;99.90;;;;;;5090853;28;20204;-77
2023/12/30 04:00:55;;;;;;;0.30;0.20;;;7.70;99.90;;;;;;5090534;28;20373;-78
2023/12/30 04:03:21;;;;;;;0.30;0.20;;;7.70;99.90;;;;;;5090862;28;20200;-78
2023/12/30 04:05:47;;;;;;;0.30;0.20;;;7.80;99.90;;;;;;5090609;28;20386;-77
2023/12/30 04:08:12;;;;;;;0.43;0.43;;;7.80;99.90;;;;;;5090816;28;20601;-77
2023/12/30 04:10:38;;;;;;;38.17;13.93;;;7.90;99.90;;;;;;5090866;28;20311;-77
2023/12/30 04:13:04;;;;;;;0.30;0.20;;;7.90;99.90;;;;;;5091562;28;20703;-78
2023/12/30 04:15:29;;;;;;;27.60;11.50;;;8.00;99.90;;;;;;5091860;28;20188;-77
2023/12/30 04:17:55;;;;;;;0.40;0.37;;;8.00;99.90;;;;;;5090353;28;20613;-78
2023/12/30 04:20:21;;;;;;;0.30;0.30;;;8.10;99.90;;;;;;5089830;28;20239;-77
2023/12/30 04:22:47;;;;;;;0.30;0.20;;;8.10;99.90;;;;;;5089382;28;20435;-77
2023/12/30 04:25:12;;;;;;;0.30;0.20;;;8.10;99.90;;;;;;5092046;28;20184;-77
2023/12/30 04:27:38;;;;;;;0.50;0.47;;;8.20;99.90;;;;;;5091519;28;20514;-78
2023/12/30 04:30:04;;;;;;;0.30;0.20;;;8.20;99.90;;;;;;5091836;28;20172;-77
2023/12/30 04:32:30;;;;;;;0.30;0.20;;;8.20;99.90;;;;;;5091321;28;20190;-77
2023/12/30 04:34:55;;;;;;;0.30;0.20;;;8.20;99.90;;;;;;5091231;28;20598;-77
2023/12/30 04:37:21;;;;;;;0.30;0.20;;;8.30;99.90;;;;;;5091161;28;20168;-77
2023/12/30 04:39:47;;;;;;;2.43;2.23;;;8.30;99.90;;;;;;5091111;28;20488;-77
2023/12/30 04:42:15;;;;;;;0.30;0.20;;;8.30;99.90;;;;;;5091323;28;20168;-78
2023/12/30 04:44:40;;;;;;;0.30;0.20;;;8.20;99.90;;;;;;5091589;28;20559;-78
2023/12/30 04:47:06;;;;;;;0.30;0.20;;;8.30;99.90;;;;;;5091183;28;20176;-77
2023/12/30 04:49:32;;;;;;;0.30;0.20;;;8.30;99.90;;;;;;5091398;28;20449;-78
2023/12/30 04:51:58;;;;;;;0.30;0.20;;;8.30;99.90;;;;;;5090819;28;20169;-78
2023/12/30 04:54:25;;;;;;;1.80;1.63;;;8.40;99.90;;;;;;5090921;28;20204;-78
2023/12/30 04:56:53;;;;;;;0.30;0.20;;;8.40;99.90;;;;;;5090801;28;20633;-77
2023/12/30 04:59:20;;;;;;;1.25;1.25;;;8.40;99.90;;;;;;5089894;28;20322;-78
2023/12/30 05:01:46;;;;;;;0.35;0.20;;;8.50;99.90;;;;;;5090992;28;20168;-77
2023/12/30 05:04:12;;;;;;;0.30;0.20;;;8.50;99.90;;;;;;5091391;28;20201;-76
2023/12/30 05:06:37;;;;;;;0.63;0.63;;;8.60;99.90;;;;;;5091044;28;20211;-77
2023/12/30 05:09:04;;;;;;;1.70;1.60;;;8.60;99.90;;;;;;5089380;28;20703;-78
2023/12/30 05:11:30;;;;;;;0.30;0.20;;;8.70;99.90;;;;;;5090399;28;20215;-77
2023/12/30 05:13:56;;;;;;;0.30;0.20;;;8.70;99.90;;;;;;5091008;28;20651;-78
2023/12/30 05:16:21;;;;;;;0.30;0.20;;;8.70;99.90;;;;;;5089174;28;20348;-77
2023/12/30 05:18:47;;;;;;;0.30;0.20;;;8.70;99.90;;;;;;5089028;28;20323;-78
2023/12/30 05:21:16;;;;;;;12.00;11.40;;;8.80;99.90;;;;;;5089313;28;20965;-78
2023/12/30 05:23:42;;;;;;;1.73;1.70;;;8.80;99.90;;;;;;5090720;28;20451;-78
2023/12/30 05:26:09;;;;;;;0.88;0.88;;;8.80;99.90;;;;;;5089409;28;20259;-78
2023/12/30 05:28:35;;;;;;;0.50;0.47;;;8.80;99.90;;;;;;5089530;28;20269;-78
2023/12/30 05:31:01;;;;;;;0.30;0.20;;;8.80;99.90;;;;;;5088818;28;20176;-78
2023/12/30 05:33:27;;;;;;;0.30;0.30;;;8.80;99.90;;;;;;5090209;28;20188;-77
2023/12/30 05:35:53;;;;;;;2.40;2.20;;;8.80;99.90;;;;;;5090218;28;20172;-77
2023/12/30 05:38:20;;;;;;;1.60;1.60;;;8.80;99.90;;;;;;5089824;28;20188;-77
2023/12/30 05:40:46;;;;;;;0.30;0.30;;;8.80;99.90;;;;;;5088601;28;20488;-77
2023/12/30 05:43:11;;;;;;;0.83;0.83;;;8.80;99.90;;;;;;5088911;28;20689;-76
2023/12/30 05:45:37;;;;;;;3.93;3.77;;;8.80;99.90;;;;;;5089217;28;20223;-78
2023/12/30 05:48:03;;;;;;;2.50;2.37;;;8.80;99.90;;;;;;5090068;28;20432;-78
2023/12/30 05:50:29;;;;;;;0.30;0.20;;;8.70;99.90;;;;;;5088828;28;20681;-77
2023/12/30 05:52:56;;;;;;;2.80;2.70;;;8.80;99.90;;;;;;5088550;28;20425;-78
2023/12/30 05:55:21;;;;;;;0.40;0.40;;;8.80;99.90;;;;;;5088941;28;20240;-77
2023/12/30 05:57:47;;;;;;;0.87;0.80;;;8.80;99.90;;;;;;5090099;28;20286;-78
2023/12/30 06:00:15;;;;;;;0.90;0.90;;;8.90;99.90;;;;;;5089648;28;20294;-78
2023/12/30 06:02:41;;;;;;;5.78;2.78;;;8.90;99.90;;;;;;5090321;28;20164;-78
2023/12/30 06:05:07;;;;;;;0.30;0.28;;;8.90;99.90;;;;;;5088636;28;20540;-78
2023/12/30 06:07:33;;;;;;;1.17;1.17;;;8.90;99.90;;;;;;5089843;28;20165;-78
2023/12/30 06:09:58;;;;;;;0.30;0.20;;;8.90;99.90;;;;;;5089682;28;20774;-77
2023/12/30 06:12:24;;;;;;;3.53;3.30;;;9.00;99.90;;;;;;5088512;28;20438;-78
2023/12/30 06:14:50;;;;;;;0.30;0.20;;;9.00;99.90;;;;;;5089451;28;21012;-76
2023/12/30 06:17:16;;;;;;;4.53;2.60;;;9.10;99.90;;;;;;5089781;28;20168;-77
2023/12/30 06:19:42;;;;;;;0.30;0.20;;;9.00;99.90;;;;;;5087990;28;20600;-78
2023/12/30 06:22:07;;;;;;;19.20;11.00;;;9.00;99.90;;;;;;5088369;28;20181;-78
2023/12/30 06:24:34;;;;;;;0.30;0.30;;;9.10;99.90;;;;;;5087361;28;20239;-77
2023/12/30 06:26:59;;;;;;;3.88;3.67;;;9.10;99.90;;;;;;5087744;28;20173;-77
2023/12/30 06:29:28;;;;;;;0.30;0.30;;;9.10;99.90;;;;;;5088240;28;20699;-78
2023/12/30 06:31:54;;;;;;;0.30;0.30;;;9.10;99.90;;;;;;5087942;28;20184;-78
2023/12/30 06:34:20;;;;;;;0.30;0.20;;;9.20;99.90;;;;;;5089678;28;20250;-77
2023/12/30 06:36:47;;;;;;;0.40;0.40;;;9.20;99.90;;;;;;5091821;28;20831;-78
2023/12/30 06:39:13;;;;;;;4.85;4.65;;;9.20;99.90;;;;;;5092121;28;20593;-78
2023/12/30 06:41:40;;;;;;;0.93;0.93;;;9.20;99.90;;;;;;5092263;28;20259;-77
2023/12/30 06:44:06;;;;;;;0.30;0.30;;;9.20;99.90;;;;;;5093683;28;20444;-77
2023/12/30 06:46:33;;;;;;;0.30;0.20;;;9.10;99.90;;;;;;5093301;28;20256;-78
2023/12/30 06:48:59;;;;;;;0.30;0.20;;;9.10;99.90;;;;;;5092048;28;20447;-77
2023/12/30 06:51:25;;;;;;;6.40;5.97;;;9.10;99.90;;;;;;5093062;28;20173;-78
2023/12/30 06:53:50;;;;;;;3.03;2.83;;;9.00;99.90;;;;;;5092139;28;20543;-77
2023/12/30 06:56:16;;;;;;;0.30;0.20;;;9.00;99.90;;;;;;5091453;28;20188;-77
2023/12/30 06:58:45;;;;;;;34.80;31.50;;;9.00;99.90;;;;;;5092140;28;20571;-78
2023/12/30 07:01:14;;;;;;;0.30;0.30;;;8.90;99.90;;;;;;5093011;28;20212;-77
2023/12/30 07:03:40;;;;;;;0.30;0.20;;;9.00;99.90;;;;;;5093381;28;20193;-78
2023/12/30 07:06:06;;;;;;;0.30;0.20;;;9.00;99.90;;;;;;5092930;28;20760;-77
2023/12/30 07:08:32;;;;;;;0.30;0.20;;;8.90;99.90;;;;;;5092939;28;20466;-77
2023/12/30 07:10:58;;;;;;;7.25;3.80;;;9.00;99.90;;;;;;5091461;28;20499;-77
2023/12/30 07:13:24;;;;;;;0.30;0.20;;;9.00;99.90;;;;;;5092586;28;20298;-78
2023/12/30 07:15:52;;;;;;;1.27;1.17;;;8.90;99.90;;;;;;5090905;28;20396;-77
2023/12/30 07:18:18;;;;;;;0.98;0.98;;;8.90;99.90;;;;;;5091222;28;20205;-76
2023/12/30 07:20:44;;;;;;;0.30;0.30;;;8.90;99.90;;;;;;5090754;28;20806;-78
2023/12/30 07:23:10;;;;;;;5.90;2.20;;;9.00;99.90;;;;;;5089135;28;20189;-76
2023/12/30 07:25:35;;;;;;;0.30;0.20;;;9.00;99.90;;;;;;5090327;28;20461;-77
2023/12/30 07:28:01;;;;;;;0.30;0.20;;;9.00;99.90;;;;;;5089467;28;20500;-77
2023/12/30 07:30:28;;;;;;;4.03;3.93;;;9.10;99.90;;;;;;5091657;28;20264;-77
2023/12/30 07:32:54;;;;;;;1.63;1.52;;;9.20;99.90;;;;;;5092404;28;20420;-77
2023/12/30 07:35:20;;;;;;;0.97;0.97;;;9.40;99.90;;;;;;5092993;28;20271;-78
2023/12/30 07:37:46;;;;;;;2.80;2.70;;;9.70;99.90;;;;;;5091858;28;20524;-77
2023/12/30 07:40:12;;;;;;;0.30;0.20;;;10.00;99.90;;;;;;5092652;28;20633;-78
2023/12/30 07:42:38;;;;;;;1.63;1.53;;;10.30;99.90;;;;;;5092514;28;20176;-78
2023/12/30 07:45:06;;;;;;;0.30;0.20;;;10.60;99.90;;;;;;5091174;28;20456;-78
2023/12/30 07:47:33;;;;;;;0.75;0.75;;;11.00;99.90;;;;;;5091524;28;20608;-78
2023/12/30 07:49:58;;;;;;;2.00;1.90;;;11.30;99.90;;;;;;5091024;28;20605;-78
2023/12/30 07:52:24;;;;;;;1.07;1.07;;;11.60;99.90;;;;;;5090965;28;20180;-78
2023/12/30 07:54:50;;;;;;;14.40;13.27;;;12.00;99.90;;;;;;5090551;28;20681;-77
2023/12/30 07:57:16;;;;;;;2.77;2.57;;;12.40;99.90;;;;;;5092098;28;20200;-78
2023/12/30 07:59:41;;;;;;;3.50;2.70;;;12.90;99.90;;;;;;5092488;28;20307;-78
2023/12/30 08:02:07;;;;;;;0.33;0.20;;;13.30;99.90;;;;;;5091943;28;20543;-77
2023/12/30 08:04:33;;;;;;;3.70;2.10;;;13.80;99.90;;;;;;5090971;28;20487;-78
2023/12/30 08:06:58;;;;;;;0.80;0.80;;;14.30;99.90;;;;;;5091904;28;20176;-78
2023/12/30 08:09:24;;;;;;;1.67;1.57;;;14.90;99.90;;;;;;5092475;28;20189;-78
2023/12/30 08:11:50;;;;;;;1.30;1.30;;;15.40;99.90;;;;;;5090572;28;20176;-78
2023/12/30 08:14:17;;;;;;;1.17;1.17;;;16.10;99.90;;;;;;5092211;28;20200;-78
2023/12/30 08:16:43;;;;;;;3.77;3.50;;;16.60;99.90;;;;;;5090662;28;20318;-78
2023/12/30 08:19:09;;;;;;;6.90;6.30;;;17.10;99.90;;;;;;5089530;28;20520;-78
2023/12/30 08:21:34;;;;;;;3.40;3.10;;;17.50;99.90;;;;;;5089720;28;20457;-78
2023/12/30 08:24:01;;;;;;;4.80;4.40;;;17.90;99.90;;;;;;5089880;28;20209;-78
2023/12/30 08:26:27;;;;;;;0.60;0.60;;;18.30;99.90;;;;;;5089572;28;20641;-78
2023/12/30 08:28:54;;;;;;;4.33;4.00;;;18.60;99.90;;;;;;5088800;28;20446;-78
2023/12/30 08:31:21;;;;;;;5.70;5.50;;;18.70;99.90;;;;;;5089536;28;20511;-78
2023/12/30 08:33:47;;;;;;;1.50;1.43;;;18.90;99.90;;;;;;5089592;28;20450;-78
2023/12/30 08:36:13;;;;;;;3.70;1.67;;;19.00;99.90;;;;;;5089618;28;20481;-78
2023/12/30 08:38:39;;;;;;;1.23;1.20;;;19.20;99.90;;;;;;5091370;28;20520;-78
2023/12/30 08:41:09;;;;;;;1.00;1.00;;;19.40;99.90;;;;;;5091001;28;20228;-78
2023/12/30 08:43:35;;;;;;;0.80;0.80;;;19.40;99.90;;;;;;5091583;28;20203;-78
2023/12/30 08:46:01;;;;;;;1.93;1.83;;;19.60;99.90;;;;;;5089530;28;21046;-78
2023/12/30 08:48:27;;;;;;;2.73;1.80;;;19.80;99.90;;;;;;5091234;28;20424;-78
2023/12/30 08:50:53;;;;;;;1.70;1.60;;;20.00;99.90;;;;;;5090834;28;20187;-78
2023/12/30 08:53:24;;;;;;;2.57;2.47;;;20.50;99.90;;;;;;5089678;28;20441;-78
2023/12/30 08:55:55;;;;;;;1.03;1.03;;;21.00;99.90;;;;;;5089402;28;20615;-78
2023/12/30 08:58:23;;;;;;;2.07;1.97;;;21.60;99.90;;;;;;5089751;28;20528;-79
2023/12/30 09:00:48;;;;;;;1.73;1.63;;;22.10;99.90;;;;;;5089537;28;20484;-79
2023/12/30 09:05:35;;;;;;;3.27;3.03;;;23.00;99.60;;;;;;5145493;27;20627;-77
2023/12/30 09:08:03;;;;;;;1.30;1.30;;;23.50;99.60;;;;;;5123172;28;20463;-77
2023/12/30 09:10:30;;;;;;;0.80;0.80;;;24.10;98.20;;;;;;5107785;28;20235;-77
2023/12/30 09:12:56;;;;;;;0.73;0.73;;;24.50;96.30;;;;;;5107371;28;20816;-77
2023/12/30 09:15:22;;;;;;;3.77;2.30;;;24.80;95.80;;;;;;5105514;28;20436;-77
2023/12/30 09:17:47;;;;;;;0.40;0.30;;;25.00;94.70;;;;;;5104172;28;20593;-77
2023/12/30 09:20:13;;;;;;;0.40;0.23;;;25.20;93.80;;;;;;5107336;28;20186;-78
2023/12/30 09:22:39;;;;;;;0.40;0.40;;;25.30;93.60;;;;;;5106841;28;20178;-77
2023/12/30 09:25:05;;;;;;;0.40;0.40;;;25.40;93.30;;;;;;5106568;28;20617;-78
2023/12/30 09:27:32;;;;;;;1.33;1.00;;;25.40;92.80;;;;;;5106157;28;20614;-77
2023/12/30 09:29:57;;;;;;;0.30;0.20;;;25.30;92.00;;;;;;5105820;28;20489;-78
2023/12/30 09:32:23;;;;;;;0.77;0.77;;;25.20;92.30;;;;;;5105606;28;20841;-78
2023/12/30 09:34:49;;;;;;;0.30;0.20;;;25.10;92.10;;;;;;5105329;28;20199;-78
2023/12/30 09:37:15;;;;;;;0.73;0.73;;;25.00;91.60;;;;;;5106930;28;20250;-77
2023/12/30 09:39:42;;;;;;;1.03;0.97;;;24.80;91.40;;;;;;5105412;28;20206;-78
2023/12/30 09:42:08;;;;;;;0.43;0.40;;;24.60;91.70;;;;;;5105091;28;20512;-77
2023/12/30 09:44:34;;;;;;;0.77;0.77;;;24.40;91.30;;;;;;5105566;28;21054;-78
2023/12/30 09:47:02;;;;;;;3.53;2.10;;;24.30;92.00;;;;;;5106807;28;20184;-77
2023/12/30 09:49:34;;;;;;;0.57;0.50;;;24.20;91.80;;;;;;5106748;28;20495;-77
2023/12/30 09:52:02;;;;;;;0.70;0.70;;;24.30;91.80;;;;;;5105239;28;20928;-77
2023/12/30 09:54:28;;;;;;;0.30;0.20;;;24.40;91.60;;;;;;5106563;28;20435;-77
2023/12/30 09:56:55;;;;;;;1.13;1.13;;;24.40;91.10;;;;;;5106286;28;20812;-77
2023/12/30 09:59:22;;;;;;;0.40;0.30;;;24.40;90.80;;;;;;5106555;28;20288;-77
2023/12/30 10:01:48;;;;;;;0.93;0.93;;;24.20;90.60;;;;;;5105108;28;20422;-77
2023/12/30 10:04:13;;;;;;;0.40;0.20;;;23.90;91.10;;;;;;5105543;28;20475;-77
2023/12/30 10:06:39;;;;;;;0.30;0.20;;;23.80;91.50;;;;;;5104118;28;20174;-77
2023/12/30 10:09:06;;;;;;;4.00;2.93;;;23.50;91.50;;;;;;5106395;28;20418;-77
2023/12/30 10:11:31;;;;;;;0.40;0.40;;;23.30;91.50;;;;;;5106425;28;20424;-77
2023/12/30 10:13:57;;;;;;;0.50;0.40;;;23.10;91.70;;;;;;5104845;28;20745;-77
2023/12/30 10:16:24;;;;;;;0.50;0.50;;;22.80;91.40;;;;;;5095832;28;20694;-77
2023/12/30 10:18:52;;;;;;;0.90;0.73;;;22.30;91.50;;;;;;5092641;28;20196;-77
2023/12/30 10:21:18;;;;;;;3.90;1.60;;;21.70;91.90;;;;;;5092759;28;20413;-77
2023/12/30 10:23:47;;;;;;;0.40;0.20;;;21.20;92.40;;;;;;5092432;28;20464;-76
2023/12/30 10:26:13;;;;;;;1.60;1.30;;;20.80;93.20;;;;;;5090869;28;20436;-77
2023/12/30 10:28:39;;;;;;;0.50;0.50;;;20.30;93.50;;;;;;5090500;28;20480;-77
2023/12/30 10:31:06;;;;;;;1.23;1.13;;;19.90;93.90;;;;;;5091837;28;20168;-77
2023/12/30 10:33:33;;;;;;;0.40;0.20;;;19.60;94.20;;;;;;5092372;28;20447;-77
2023/12/30 10:35:59;;;;;;;0.40;0.37;;;19.20;94.80;;;;;;5090692;28;21044;-77
2023/12/30 10:38:26;;;;;;;3.63;1.73;;;18.90;95.30;;;;;;5090800;28;20462;-76
2023/12/30 10:40:52;;;;;;;1.37;0.77;;;18.70;95.90;;;;;;5091678;28;20412;-77
2023/12/30 10:43:21;;;;;;;0.40;0.20;;;18.50;96.10;;;;;;5092250;28;20837;-77
2023/12/30 10:45:58;;;;;;;0.40;0.30;;;18.30;96.30;;;;;;5090413;28;20448;-77
2023/12/30 10:48:32;;;;;;;0.77;0.77;;;18.10;96.60;;;;;;5092203;28;22166;-77
2023/12/30 10:50:59;;;;;;;2.00;1.23;;;17.90;96.80;;;;;;5091771;28;20484;-77
2023/12/30 10:53:27;;;;;;;0.30;0.20;;;17.70;97.10;;;;;;5092043;28;20446;-79
2023/12/30 10:56:00;;;;;;;2.97;2.47;;;17.50;97.50;;;;;;5090416;28;20410;-79
2023/12/30 10:58:26;;;;;;;0.77;0.77;;;17.40;98.00;;;;;;5091675;28;20800;-79
2023/12/30 11:00:59;;;;;;;5.73;5.43;;;17.20;98.50;;;;;;5091537;28;20398;-79
2023/12/30 11:03:26;;;;;;;1.17;1.17;;;17.10;98.80;;;;;;5091299;28;20295;-79
2023/12/30 11:06:07;;;;;;;0.50;0.50;;;17.00;98.80;;;;;;5089850;28;20930;-79
2023/12/30 11:08:33;;;;;;;0.37;0.27;;;16.90;99.20;;;;;;5091694;28;20532;-79
2023/12/30 11:11:04;;;;;;;0.33;0.27;;;16.70;99.50;;;;;;5090054;28;20725;-79
2023/12/30 11:13:41;;;;;;;1.40;1.40;;;16.60;99.90;;;;;;5091700;28;20448;-79
2023/12/30 11:16:19;;;;;;;0.30;0.20;;;16.60;99.90;;;;;;5090151;28;20947;-79
2023/12/30 11:19:03;;;;;;;0.40;0.30;;;16.50;99.90;;;;;;5090023;28;20545;-79
2023/12/30 11:21:43;;;;;;;1.33;1.23;;;16.50;99.90;;;;;;5092002;28;20913;-79
2023/12/30 11:24:11;;;;;;;1.17;0.50;;;16.40;99.90;;;;;;5091350;28;20460;-79
2023/12/30 11:26:41;;;;;;;1.80;1.70;;;16.30;99.90;;;;;;5090673;28;20428;-79
2023/12/30 11:29:12;;;;;;;0.30;0.20;;;16.30;99.90;;;;;;5088791;28;20444;-79
2023/12/30 11:31:41;;;;;;;0.40;0.30;;;16.20;99.90;;;;;;5091175;28;20403;-79
2023/12/30 11:34:06;;;;;;;0.40;0.30;;;16.10;99.90;;;;;;5091094;28;20476;-79
2023/12/30 11:36:33;;;;;;;0.60;0.60;;;16.10;99.90;;;;;;5090104;28;20449;-78
2023/12/30 11:38:59;;;;;;;0.30;0.30;;;16.10;99.90;;;;;;5089887;28;20964;-79
2023/12/30 11:41:27;;;;;;;2.67;2.47;;;16.00;99.90;;;;;;5089612;28;20634;-79
2023/12/30 11:44:05;;;;;;;1.23;1.23;;;16.00;99.90;;;;;;5090972;28;20480;-79
2023/12/30 11:46:31;;;;;;;1.13;1.13;;;16.00;99.90;;;;;;5089494;28;20408;-79
2023/12/30 11:48:57;;;;;;;0.40;0.20;;;15.90;99.90;;;;;;5090946;28;20532;-79
2023/12/30 11:51:25;;;;;;;0.30;0.20;;;15.90;99.90;;;;;;5089627;28;20405;-79
2023/12/30 11:53:52;;;;;;;0.50;0.43;;;15.90;99.90;;;;;;5090826;28;20437;-79
2023/12/30 11:56:19;;;;;;;0.40;0.30;;;15.90;99.90;;;;;;5089493;28;20776;-79
2023/12/30 11:58:46;;;;;;;0.33;0.20;;;15.80;99.90;;;;;;5089205;28;20890;-78
2023/12/30 12:01:12;;;;;;;0.40;0.40;;;15.80;99.90;;;;;;5089368;28;20405;-79
2023/12/30 12:03:39;;;;;;;0.40;0.20;;;15.80;99.90;;;;;;5088630;28;20477;-79
2023/12/30 12:06:06;;;;;;;0.30;0.20;;;15.80;99.90;;;;;;5090242;28;20411;-79
2023/12/30 12:08:32;;;;;;;0.60;0.60;;;15.80;99.90;;;;;;5088403;28;20795;-79
2023/12/30 12:10:58;;;;;;;0.30;0.20;;;15.70;99.90;;;;;;5088837;28;20416;-79
2023/12/30 12:13:26;;;;;;;5.00;1.53;;;15.70;99.90;;;;;;5089494;28;20259;-79
2023/12/30 12:15:53;;;;;;;0.30;0.30;;;15.70;99.90;;;;;;5090323;28;20547;-79
2023/12/30 12:18:22;;;;;;;0.30;0.20;;;15.70;99.90;;;;;;5090620;28;20440;-79
2023/12/30 12:20:48;;;;;;;0.40;0.30;;;15.60;99.90;;;;;;5090049;28;20424;-79
2023/12/30 12:23:16;;;;;;;0.30;0.20;;;15.60;99.90;;;;;;5090152;28;20424;-79
2023/12/30 12:25:44;;;;;;;5.50;3.63;;;15.60;99.90;;;;;;5090023;28;20408;-79
2023/12/30 12:28:11;;;;;;;0.60;0.60;;;15.60;99.90;;;;;;5089162;28;20914;-79
2023/12/30 12:30:37;;;;;;;0.87;0.87;;;15.60;99.90;;;;;;5089613;28;20756;-79
2023/12/30 12:33:04;;;;;;;0.83;0.83;;;15.60;99.90;;;;;;5089576;28;20460;-79
2023/12/30 12:35:30;;;;;;;2.30;2.20;;;15.60;99.90;;;;;;5088740;28;20864;-78
2023/12/30 12:37:59;;;;;;;0.30;0.20;;;15.60;99.90;;;;;;5089682;28;20467;-79
2023/12/30 12:40:25;;;;;;;0.30;0.20;;;15.60;99.90;;;;;;5088727;28;20491;-79
2023/12/30 12:42:51;;;;;;;0.67;0.67;;;15.60;99.90;;;;;;5089741;28;20428;-79
2023/12/30 12:45:17;;;;;;;1.13;0.80;;;15.70;99.90;;;;;;5088528;28;20219;-79
2023/12/30 12:47:42;;;;;;;0.30;0.20;;;15.70;99.90;;;;;;5089813;28;20200;-79
2023/12/30 12:50:08;;;;;;;0.40;0.30;;;15.70;99.90;;;;;;5088647;28;20180;-79
2023/12/30 12:52:34;;;;;;;0.50;0.50;;;15.80;99.90;;;;;;5088468;28;20413;-79